Time;durP1;ratioP1;P1;durP2;ratioP2;P2;SDS_P1;SDS_P2;PMS_P1;PMS_P2;Temp;Humidity;BMP_temperature;BMP_pressure;BME280_temperature;BME280_humidity;BME280_pressure;Samples;Min_cycle;Max_cycle;Signal;HPM_P1;HPM_P2
2023/04/28 00:00:55;;;;;;;27.00;12.93;;;;;;;22.20;55.87;98501.91;4821912;29;20050;-58
2023/04/28 00:04:23;;;;;;;24.05;12.77;;;;;;;22.17;55.86;98507.81;4823758;29;20056;-57
2023/04/28 00:07:50;;;;;;;21.65;12.57;;;;;;;22.15;56.24;98504.59;4831144;29;20056;-58
2023/04/28 00:11:18;;;;;;;27.20;12.60;;;;;;;22.12;56.39;98494.38;4829124;29;20474;-61
2023/04/28 00:14:46;;;;;;;31.20;13.20;;;;;;;22.10;55.96;98493.00;4824789;29;20089;-59
2023/04/28 00:18:12;;;;;;;34.55;13.90;;;;;;;22.09;55.94;98497.59;4811184;29;20053;-59
2023/04/28 00:21:40;;;;;;;24.15;13.23;;;;;;;22.07;56.53;98499.75;4806552;29;20500;-59
2023/04/28 00:25:07;;;;;;;26.65;14.48;;;;;;;22.05;56.71;98504.59;4726512;29;20150;-59
2023/04/28 00:28:35;;;;;;;29.02;13.88;;;;;;;22.02;56.97;98494.38;4812008;29;20065;-58
2023/04/28 00:32:02;;;;;;;32.53;15.02;;;;;;;21.99;56.06;98489.53;4791402;29;20558;-60
2023/04/28 00:35:31;;;;;;;25.75;14.07;;;;;;;21.99;56.74;98507.59;4809599;29;20118;-59
2023/04/28 00:38:59;;;;;;;31.67;14.75;;;;;;;21.95;57.00;98512.72;4802531;29;20066;-60
2023/04/28 00:42:26;;;;;;;24.13;14.80;;;;;;;21.94;56.76;98521.88;4800800;29;20054;-59
2023/04/28 00:45:54;;;;;;;34.22;14.85;;;;;;;21.96;56.84;98527.81;4792317;29;20126;-59
2023/04/28 00:49:22;;;;;;;28.30;15.45;;;;;;;21.99;56.56;98531.88;4810344;29;20082;-59
2023/04/28 00:52:51;;;;;;;37.63;15.40;;;;;;;21.98;56.65;98539.13;4810520;29;20138;-59
2023/04/28 00:56:19;;;;;;;33.33;15.52;;;;;;;22.01;56.71;98540.47;4810231;29;20979;-57
2023/04/28 00:59:47;;;;;;;30.60;16.13;;;;;;;22.01;56.58;98544.00;4810826;29;20069;-60
2023/04/28 01:03:14;;;;;;;40.20;16.25;;;;;;;22.01;56.83;98549.38;4814568;29;20515;-59
2023/04/28 01:06:43;;;;;;;34.53;17.38;;;;;;;22.03;57.02;98562.59;4814300;29;20194;-59
2023/04/28 01:10:11;;;;;;;36.50;18.30;;;;;;;22.06;56.50;98554.78;4814392;29;20061;-59
2023/04/28 01:13:38;;;;;;;35.15;18.90;;;;;;;22.08;56.19;98560.72;4814974;29;20069;-58
2023/04/28 01:17:05;;;;;;;33.88;19.77;;;;;;;22.11;56.57;98567.47;4814683;29;20453;-59
2023/04/28 01:20:33;;;;;;;43.50;21.70;;;;;;;22.11;55.64;98549.38;4800441;29;20920;-60
2023/04/28 01:24:01;;;;;;;41.15;22.80;;;;;;;22.15;55.85;98552.34;4810507;29;21466;-59
2023/04/28 01:27:28;;;;;;;42.08;21.48;;;;;;;22.18;56.01;98567.97;4772651;29;20122;-59
2023/04/28 01:30:56;;;;;;;46.33;22.83;;;;;;;22.22;55.44;98572.56;4813395;29;20061;-59
2023/04/28 01:34:24;;;;;;;48.05;22.83;;;;;;;22.31;55.98;98579.03;4814005;29;20387;-60
2023/04/28 01:37:51;;;;;;;41.80;22.23;;;;;;;22.36;55.68;98573.63;4814573;29;20065;-59
2023/04/28 01:41:18;;;;;;;44.13;22.20;;;;;;;22.48;55.35;98586.88;4805262;29;20446;-60
2023/04/28 01:44:46;;;;;;;42.50;22.17;;;;;;;22.58;56.03;98608.44;4796716;29;20094;-60
2023/04/28 01:48:13;;;;;;;44.53;23.55;;;;;;;22.65;56.50;98608.16;4808656;29;20770;-58
2023/04/28 01:51:41;;;;;;;44.47;21.90;;;;;;;22.65;56.87;98595.47;4793640;29;20552;-60
2023/04/28 01:55:09;;;;;;;45.50;20.13;;;;;;;22.66;55.75;98591.66;4813174;29;20093;-61
2023/04/28 01:58:37;;;;;;;43.03;20.60;;;;;;;22.84;55.45;98618.13;4811490;29;20146;-59
2023/04/28 02:02:05;;;;;;;31.73;18.65;;;;;;;23.00;55.85;98627.00;4812461;29;20162;-61
2023/04/28 02:05:33;;;;;;;40.35;18.98;;;;;;;23.11;56.69;98634.00;4808568;29;20174;-60
2023/04/28 02:09:01;;;;;;;43.25;23.05;;;;;;;23.22;55.67;98613.97;4800813;29;20372;-63
2023/04/28 02:11:33;;;;;;;51.08;26.98;;;;;;;23.31;55.61;98613.38;4797189;29;20061;-62
2023/04/28 02:14:03;;;;;;;54.75;29.20;;;;;;;23.38;54.89;98622.81;4782002;29;20054;-62
2023/04/28 02:16:32;;;;;;;52.75;28.67;;;;;;;23.44;55.11;98631.75;4797474;29;20059;-62
2023/04/28 02:19:02;;;;;;;50.38;28.55;;;;;;;23.66;54.26;98629.47;4797017;29;20512;-61
2023/04/28 02:21:31;;;;;;;47.60;26.25;;;;;;;23.94;53.19;98625.25;4796951;29;20562;-60
2023/04/28 02:24:01;;;;;;;51.47;24.70;;;;;;;24.23;52.40;98636.16;4797469;29;20047;-61
2023/04/28 02:26:32;;;;;;;52.85;24.20;;;;;;;24.30;52.30;98642.03;4797184;29;20120;-61
2023/04/28 02:29:05;;;;;;;41.85;23.27;;;;;;;24.54;51.34;98634.81;4812370;29;20051;-61
2023/04/28 02:31:34;;;;;;;39.28;24.08;;;;;;;24.92;50.22;98625.78;4804665;29;20074;-58
2023/04/28 02:34:04;;;;;;;42.53;22.77;;;;;;;25.23;48.86;98620.81;4796551;29;20123;-60
2023/04/28 02:36:33;;;;;;;44.40;21.63;;;;;;;25.64;48.02;98633.88;4797170;29;20050;-63
2023/04/28 02:39:03;;;;;;;36.65;21.95;;;;;;;25.77;47.68;98625.84;4789274;29;20050;-61
2023/04/28 02:41:33;;;;;;;43.10;21.80;;;;;;;25.97;48.02;98637.50;4797051;29;20405;-60
2023/04/28 02:44:02;;;;;;;43.28;19.73;;;;;;;25.99;46.79;98644.25;4797336;29;20054;-61
2023/04/28 02:46:32;;;;;;;32.05;19.10;;;;;;;25.88;47.87;98646.31;4798230;29;20516;-59
2023/04/28 02:49:02;;;;;;;32.92;17.88;;;;;;;25.84;47.57;98636.34;4796953;29;20066;-61
2023/04/28 02:51:31;;;;;;;35.53;18.23;;;;;;;25.81;47.20;98629.56;4797394;29;20644;-61
2023/04/28 02:54:01;;;;;;;39.80;19.65;;;;;;;25.87;46.89;98638.47;4812927;29;20055;-60
2023/04/28 02:56:30;;;;;;;34.97;18.80;;;;;;;25.80;47.03;98635.31;4798303;29;20155;-61
2023/04/28 02:59:01;;;;;;;38.30;19.15;;;;;;;25.45;48.90;98636.53;4783619;29;20082;-59
2023/04/28 03:01:30;;;;;;;37.55;18.08;;;;;;;25.46;48.94;98632.72;4813037;29;20076;-60
2023/04/28 03:03:59;;;;;;;39.00;18.52;;;;;;;25.36;50.00;98635.56;4797455;29;20527;-61
2023/04/28 03:06:29;;;;;;;35.92;18.38;;;;;;;25.23;49.70;98638.97;4796792;29;20433;-60
2023/04/28 03:08:59;;;;;;;40.67;18.70;;;;;;;25.23;50.26;98634.38;4830289;29;20073;-61
2023/04/28 03:11:29;;;;;;;32.92;17.85;;;;;;;25.30;49.62;98632.13;4809512;29;20494;-60
2023/04/28 03:13:58;;;;;;;31.48;17.23;;;;;;;25.35;49.12;98644.81;4800890;29;20054;-59
2023/04/28 03:16:28;;;;;;;34.03;17.88;;;;;;;25.37;48.97;98651.56;4800319;29;20065;-61
2023/04/28 03:18:58;;;;;;;34.42;18.38;;;;;;;25.44;49.54;98649.31;4815167;29;20058;-61
2023/04/28 03:21:27;;;;;;;44.17;18.40;;;;;;;25.19;51.04;98655.03;4818649;29;20053;-60
2023/04/28 03:23:57;;;;;;;35.60;18.77;;;;;;;25.22;50.09;98661.78;4800794;29;20071;-61
2023/04/28 03:26:26;;;;;;;45.15;18.85;;;;;;;25.45;51.76;98656.34;4799851;29;20055;-60
2023/04/28 03:28:55;;;;;;;41.22;19.60;;;;;;;25.57;51.22;98663.28;4817256;29;20482;-59
2023/04/28 03:31:25;;;;;;;40.80;19.85;;;;;;;25.68;51.67;98668.28;4803805;29;20053;-59
2023/04/28 03:33:55;;;;;;;41.33;19.50;;;;;;;25.67;51.52;98666.66;4831076;29;20066;-54
2023/04/28 03:36:24;;;;;;;36.22;20.30;;;;;;;25.81;51.13;98667.56;4831064;29;20160;-58
2023/04/28 03:38:55;;;;;;;43.28;22.00;;;;;;;25.71;52.17;98664.19;4830710;29;20046;-57
2023/04/28 03:42:21;;;;;;;32.08;21.02;;;;;;;25.64;52.64;98671.88;4830810;29;20125;-58
2023/04/28 03:45:49;;;;;;;44.70;22.02;;;;;;;25.70;52.07;98682.38;4825214;29;20056;-61
2023/04/28 03:49:16;;;;;;;45.95;20.52;;;;;;;25.60;53.23;98695.25;4820914;29;20128;-57
2023/04/28 03:52:44;;;;;;;33.92;16.88;;;;;;;25.68;53.32;98681.84;4824140;29;20064;-58
2023/04/28 03:56:11;;;;;;;26.48;15.20;;;;;;;25.67;54.16;98679.44;4833102;29;20060;-58
2023/04/28 03:59:38;;;;;;;24.17;14.63;;;;;;;25.53;53.22;98679.31;4820941;29;20205;-59
2023/04/28 04:03:04;;;;;;;26.30;13.77;;;;;;;25.81;52.67;98674.91;4811327;29;20131;-58
2023/04/28 04:06:32;;;;;;;28.10;14.13;;;;;;;25.66;52.53;98677.81;4832429;29;20195;-59
2023/04/28 04:09:59;;;;;;;27.77;12.93;;;;;;;26.01;51.55;98684.69;4810170;29;20658;-58
2023/04/28 04:13:28;;;;;;;28.58;13.45;;;;;;;25.91;51.85;98685.63;4802489;29;20175;-58
2023/04/28 04:16:55;;;;;;;33.72;13.60;;;;;;;26.23;52.04;98679.50;4794120;29;20396;-59
2023/04/28 04:20:22;;;;;;;31.23;13.60;;;;;;;26.31;51.04;98674.19;4802017;29;20234;-58
2023/04/28 04:23:50;;;;;;;28.25;15.32;;;;;;;26.33;50.42;98674.69;4805374;29;20084;-59
2023/04/28 04:27:16;;;;;;;33.72;14.95;;;;;;;26.34;50.22;98667.34;4779882;29;20208;-59
2023/04/28 04:30:44;;;;;;;28.35;15.63;;;;;;;26.51;50.35;98664.91;4810635;29;20069;-58
2023/04/28 04:34:11;;;;;;;33.42;15.25;;;;;;;26.69;49.15;98672.19;4796465;29;20130;-59
2023/04/28 04:37:39;;;;;;;32.03;15.57;;;;;;;26.85;49.14;98671.94;4812131;29;20482;-57
2023/04/28 04:41:07;;;;;;;25.75;15.40;;;;;;;27.09;49.35;98667.16;4793967;29;20055;-58
2023/04/28 04:44:35;;;;;;;41.95;16.55;;;;;;;27.34;47.45;98663.97;4815298;29;20050;-60
2023/04/28 04:48:02;;;;;;;27.95;14.23;;;;;;;27.37;47.43;98662.53;4825730;29;20061;-57
2023/04/28 04:50:31;;;;;;;39.08;15.93;;;;;;;27.60;47.75;98661.56;4804978;29;20487;-59
2023/04/28 04:53:02;;;;;;;30.70;13.70;;;;;;;27.63;48.22;98666.38;4834807;29;20152;-58
2023/04/28 04:55:32;;;;;;;43.92;13.82;;;;;;;27.54;48.15;98663.56;4828711;29;20051;-60
2023/04/28 04:58:03;;;;;;;26.05;11.50;;;;;;;27.67;47.73;98667.38;4816243;29;20062;-60
2023/04/28 05:00:58;;;;;;;27.13;12.23;;;;;;;27.71;47.73;98660.22;4833117;29;20042;-59
2023/04/28 05:03:27;;;;;;;18.85;10.75;;;;;;;27.67;47.28;98661.94;4821039;29;20118;-59
2023/04/28 05:05:58;;;;;;;24.92;11.10;;;;;;;27.98;46.46;98651.19;4810477;29;20577;-58
2023/04/28 05:08:39;;;;;;;26.33;10.13;;;;;;;28.09;46.52;98663.47;4816332;29;20053;-61
2023/04/28 05:11:08;;;;;;;30.23;11.00;;;;;;;28.00;46.81;98655.22;4805489;29;20050;-59
2023/04/28 05:13:39;;;;;;;35.88;10.50;;;;;;;27.91;47.04;98662.50;4822588;29;20149;-53
2023/04/28 05:16:10;;;;;;;28.80;9.32;;;;;;;27.69;46.87;98654.28;4812049;29;20058;-59
2023/04/28 05:19:01;;;;;;;25.05;10.35;;;;;;;27.59;46.83;98646.34;4820954;29;20054;-61
2023/04/28 05:21:31;;;;;;;20.33;9.43;;;;;;;27.77;46.18;98648.13;4830129;29;20410;-57
2023/04/28 05:24:01;;;;;;;32.15;9.93;;;;;;;28.80;41.36;98643.50;4831792;29;20054;-56
2023/04/28 05:26:31;;;;;;;23.42;9.52;;;;;;;28.76;43.78;98649.91;4810547;29;20145;-57
2023/04/28 05:29:06;;;;;;;20.25;9.15;;;;;;;28.72;45.81;98649.72;4808969;29;20058;-60
2023/04/28 05:31:35;;;;;;;24.90;10.18;;;;;;;28.97;46.07;98638.13;4832031;29;20073;-57
2023/04/28 05:34:05;;;;;;;22.38;10.27;;;;;;;28.87;45.79;98643.03;4812795;29;20562;-55
2023/04/28 05:36:34;;;;;;;26.27;9.25;;;;;;;28.65;45.38;98643.84;4836097;29;20057;-57
2023/04/28 05:39:07;;;;;;;30.42;9.18;;;;;;;28.55;45.72;98627.75;4822802;29;20061;-59
2023/04/28 05:41:37;;;;;;;25.40;9.68;;;;;;;28.82;44.97;98635.81;4814903;29;20095;-58
2023/04/28 05:44:07;;;;;;;32.80;11.63;;;;;;;29.08;44.49;98630.47;4795599;29;20054;-57
2023/04/28 05:46:36;;;;;;;23.40;9.93;;;;;;;29.33;41.64;98629.78;4829113;29;20378;-58
2023/04/28 05:49:37;;;;;;;17.35;8.63;;;;;;;29.55;42.88;98628.06;4829688;29;20065;-59
2023/04/28 05:52:08;;;;;;;23.40;9.65;;;;;;;30.04;40.37;98629.59;4833580;29;20057;-55
2023/04/28 05:54:37;;;;;;;21.10;9.05;;;;;;;30.10;39.83;98631.03;4815233;29;20137;-60
2023/04/28 05:57:07;;;;;;;19.98;9.57;;;;;;;30.11;40.73;98625.25;4824868;29;20804;-58
2023/04/28 05:59:37;;;;;;;26.85;9.25;;;;;;;30.18;41.16;98614.63;4830040;29;20119;-57
2023/04/28 06:02:06;;;;;;;27.52;8.82;;;;;;;29.97;42.29;98623.78;4809192;29;21427;-57
2023/04/28 06:04:38;;;;;;;24.75;8.75;;;;;;;29.99;42.97;98616.91;4815439;29;20061;-58
2023/04/28 06:07:08;;;;;;;24.48;8.48;;;;;;;29.96;43.20;98614.81;4476911;29;9999744;-56
2023/04/28 06:09:38;;;;;;;22.88;8.77;;;;;;;30.19;42.82;98616.25;4812612;29;20074;-58
2023/04/28 06:12:08;;;;;;;27.45;9.75;;;;;;;30.04;41.47;98618.66;4817031;29;20131;-57
2023/04/28 06:14:39;;;;;;;15.88;8.40;;;;;;;30.29;40.99;98607.72;4820158;29;20157;-57
2023/04/28 06:17:09;;;;;;;19.02;7.70;;;;;;;30.28;40.46;98599.84;4800257;29;20068;-57
2023/04/28 06:19:38;;;;;;;24.73;7.93;;;;;;;30.35;40.57;98594.69;4821498;29;20054;-59
2023/04/28 06:22:07;;;;;;;20.27;8.45;;;;;;;30.11;41.09;98597.94;4813901;29;20058;-55
2023/04/28 06:24:40;;;;;;;21.80;8.07;;;;;;;30.26;39.56;98597.44;4814033;29;20643;-57
2023/04/28 06:27:14;;;;;;;25.50;8.05;;;;;;;30.40;35.78;98591.00;4810083;29;20042;-55
2023/04/28 06:29:44;;;;;;;13.40;7.28;;;;;;;30.40;40.07;98577.31;4833951;29;20069;-57
2023/04/28 06:32:13;;;;;;;29.40;7.53;;;;;;;30.85;32.97;98589.41;4833987;29;20118;-53
2023/04/28 06:34:43;;;;;;;17.75;7.80;;;;;;;31.35;36.64;98585.97;4817860;29;20096;-50
2023/04/28 06:37:12;;;;;;;35.63;9.48;;;;;;;31.11;34.03;98584.66;4826949;29;20094;-59
2023/04/28 06:39:42;;;;;;;18.00;7.50;;;;;;;31.08;38.47;98579.03;4815414;29;20069;-53
2023/04/28 06:42:11;;;;;;;26.38;7.65;;;;;;;31.38;36.00;98590.81;4829645;29;20045;-57
2023/04/28 06:44:42;;;;;;;27.40;7.50;;;;;;;31.39;33.96;98581.44;4832582;29;20554;-56
2023/04/28 06:47:12;;;;;;;20.27;7.00;;;;;;;31.58;36.94;98587.31;4808774;29;20161;-52
2023/04/28 06:49:43;;;;;;;18.58;6.38;;;;;;;31.58;35.21;98579.91;4833905;29;20058;-58
2023/04/28 06:52:13;;;;;;;31.17;7.30;;;;;;;31.70;35.99;98570.13;4830639;29;20550;-55
2023/04/28 06:54:42;;;;;;;20.65;6.50;;;;;;;31.39;36.45;98575.97;4804447;29;20921;-59
2023/04/28 06:57:12;;;;;;;25.83;6.78;;;;;;;30.94;34.28;98581.16;4816193;29;20065;-61
2023/04/28 06:59:42;;;;;;;21.92;6.55;;;;;;;30.74;37.67;98575.31;4813236;29;20064;-58
2023/04/28 07:02:13;;;;;;;16.02;6.47;;;;;;;30.67;37.57;98574.22;4831544;29;20061;-58
2023/04/28 07:04:42;;;;;;;23.17;6.60;;;;;;;31.10;36.45;98574.06;4804639;29;20077;-59
2023/04/28 07:07:12;;;;;;;26.05;6.93;;;;;;;31.18;37.48;98573.19;4803507;29;20172;-59
2023/04/28 07:09:41;;;;;;;25.38;7.30;;;;;;;30.96;37.77;98568.78;4827627;29;20061;-58
2023/04/28 07:12:11;;;;;;;23.42;7.15;;;;;;;30.80;38.06;98567.75;4815971;29;20158;-59
2023/04/28 07:14:41;;;;;;;25.42;6.85;;;;;;;30.75;38.33;98567.91;4817024;29;20054;-60
2023/04/28 07:17:11;;;;;;;18.90;6.53;;;;;;;30.69;38.93;98563.75;4808454;29;20137;-59
2023/04/28 07:19:40;;;;;;;29.08;6.95;;;;;;;30.76;38.98;98558.56;4822508;29;20061;-60
2023/04/28 07:22:10;;;;;;;23.23;6.40;;;;;;;30.97;36.03;98561.38;4833628;29;20091;-60
2023/04/28 07:24:40;;;;;;;18.42;6.05;;;;;;;30.98;37.68;98557.53;4814716;29;20069;-57
2023/04/28 07:27:09;;;;;;;28.08;6.40;;;;;;;30.93;40.03;98554.97;4817942;29;20094;-59
2023/04/28 07:29:38;;;;;;;22.67;6.38;;;;;;;30.76;39.71;98553.09;4823205;29;20057;-59
2023/04/28 07:32:09;;;;;;;23.92;7.38;;;;;;;30.86;30.47;98552.72;4834563;29;20054;-58
2023/04/28 07:35:37;;;;;;;24.65;5.97;;;;;;;31.92;28.91;98554.16;4829072;29;20094;-58
2023/04/28 07:39:05;;;;;;;19.33;6.28;;;;;;;32.36;26.65;98557.31;4830187;29;20199;-58
2023/04/28 07:42:33;;;;;;;31.10;8.48;;;;;;;32.06;33.51;98562.91;4823412;29;20053;-60
2023/04/28 07:45:04;;;;;;;17.33;6.32;;;;;;;31.73;34.68;98556.59;4832070;29;20110;-59
2023/04/28 07:47:35;;;;;;;25.48;7.80;;;;;;;31.86;33.23;98560.19;4829862;29;20072;-55
2023/04/28 07:50:05;;;;;;;24.77;6.53;;;;;;;31.47;34.34;98556.75;4833784;29;20142;-59
2023/04/28 07:52:35;;;;;;;23.00;6.95;;;;;;;31.07;35.94;98548.13;4829494;29;20065;-60
2023/04/28 07:55:05;;;;;;;14.38;6.20;;;;;;;30.88;36.17;98549.69;4834153;29;21348;-60
2023/04/28 07:57:34;;;;;;;25.00;7.07;;;;;;;30.85;36.24;98545.66;4817883;29;20461;-60
2023/04/28 08:00:05;;;;;;;19.77;6.60;;;;;;;30.57;38.51;98549.97;4832941;29;20053;-60
2023/04/28 08:02:41;;;;;;;22.83;6.82;;;;;;;30.26;39.74;98544.72;4831875;29;20054;-57
2023/04/28 08:05:11;;;;;;;20.92;8.13;;;;;;;30.06;40.63;98540.72;4827670;29;20054;-57
2023/04/28 08:07:42;;;;;;;28.10;7.00;;;;;;;30.03;41.74;98541.38;4830835;29;20137;-56
2023/04/28 08:10:12;;;;;;;16.38;7.25;;;;;;;30.16;39.13;98534.13;4826834;29;20057;-56
2023/04/28 08:12:44;;;;;;;20.75;8.15;;;;;;;30.22;40.08;98533.63;4831475;29;20061;-59
2023/04/28 08:15:13;;;;;;;22.58;8.38;;;;;;;30.19;39.55;98528.81;4817821;29;20060;-61
2023/04/28 08:17:45;;;;;;;25.73;8.32;;;;;;;30.13;42.03;98527.38;4826112;29;20046;-53
2023/04/28 08:20:18;;;;;;;17.45;7.88;;;;;;;30.26;39.99;98520.94;4808098;29;20047;-58
2023/04/28 08:22:51;;;;;;;19.88;7.82;;;;;;;30.19;41.20;98512.41;4815323;29;20142;-54
2023/04/28 08:25:21;;;;;;;17.08;8.35;;;;;;;30.06;40.82;98513.41;4817874;29;20046;-54
2023/04/28 08:27:54;;;;;;;26.13;8.68;;;;;;;29.97;39.71;98509.88;4817188;29;20408;-58
2023/04/28 08:30:26;;;;;;;29.67;9.02;;;;;;;30.32;30.90;98505.94;4814297;29;20058;-60
2023/04/28 08:32:55;;;;;;;23.80;8.05;;;;;;;30.44;36.46;98493.53;4820127;29;20131;-57
2023/04/28 08:35:25;;;;;;;19.52;8.00;;;;;;;30.32;37.06;98495.00;4832666;29;20064;-58
2023/04/28 08:37:55;;;;;;;24.98;8.63;;;;;;;30.05;38.59;98489.94;4815992;29;20058;-60
2023/04/28 08:40:25;;;;;;;22.95;9.07;;;;;;;29.78;39.96;98490.31;4831500;29;20159;-59
2023/04/28 08:43:53;;;;;;;26.40;8.55;;;;;;;29.76;40.61;98487.06;4831503;29;20053;-57
2023/04/28 08:47:22;;;;;;;23.17;7.72;;;;;;;29.63;40.51;98477.94;4823199;29;20053;-60
2023/04/28 08:50:53;;;;;;;17.42;8.32;;;;;;;29.50;40.31;98470.72;4803917;29;20127;-61
2023/04/28 08:54:21;;;;;;;26.55;8.27;;;;;;;29.17;39.85;98459.44;4808578;29;20495;-59
2023/04/28 08:57:53;;;;;;;19.55;7.93;;;;;;;29.41;36.17;98454.34;4809118;29;20065;-58
2023/04/28 09:01:20;;;;;;;23.60;8.38;;;;;;;29.54;37.83;98452.56;4806858;29;20053;-58
2023/04/28 09:04:48;;;;;;;32.28;8.13;;;;;;;29.43;40.48;98452.09;4809709;29;20095;-58
2023/04/28 09:08:15;;;;;;;16.58;8.15;;;;;;;29.26;42.37;98438.41;4726910;29;20520;-56
2023/04/28 09:15:08;;;;;;;24.92;8.25;;;;;;;29.28;41.75;98422.53;4749846;29;20172;-67
2023/04/28 09:17:51;;;;;;;32.88;8.00;;;;;;;29.36;42.42;98421.75;4757448;30;20048;-60
2023/04/28 09:20:25;;;;;;;20.15;7.53;;;;;;;29.33;42.38;98419.69;4775664;29;20063;-61
2023/04/28 09:22:55;;;;;;;21.63;7.72;;;;;;;29.20;42.17;98415.16;4767199;29;20067;-63
2023/04/28 09:25:26;;;;;;;28.70;8.95;;;;;;;29.21;42.16;98410.53;4768668;30;20517;-61
2023/04/28 09:27:56;;;;;;;19.40;7.88;;;;;;;29.22;41.26;98402.00;4773147;29;20637;-61
2023/04/28 09:30:41;;;;;;;16.20;7.30;;;;;;;29.26;41.49;98394.78;4772479;29;20067;-61
2023/04/28 09:33:10;;;;;;;18.52;6.95;;;;;;;29.28;40.97;98389.81;4772612;29;20051;-61
2023/04/28 09:35:41;;;;;;;13.18;6.60;;;;;;;29.39;40.41;98393.03;4773271;29;20055;-64
2023/04/28 09:38:11;;;;;;;23.58;7.60;;;;;;;29.34;40.38;98387.75;4772769;29;20142;-67
2023/04/28 09:41:03;;;;;;;21.50;6.53;;;;;;;29.13;41.00;98381.28;4771625;29;20061;-65
2023/04/28 09:43:34;;;;;;;19.10;6.40;;;;;;;29.11;40.61;98378.91;4773016;30;20435;-66
2023/04/28 09:46:04;;;;;;;21.35;7.45;;;;;;;29.12;36.33;98369.56;4770377;29;20057;-63
2023/04/28 09:48:37;;;;;;;19.08;6.30;;;;;;;29.11;39.54;98369.91;4774102;29;20056;-63
2023/04/28 09:51:08;;;;;;;16.73;6.05;;;;;;;29.15;38.94;98363.50;4773926;29;20885;-65
2023/04/28 09:53:40;;;;;;;12.90;6.45;;;;;;;29.17;40.09;98363.16;4771721;29;20499;-63
2023/04/28 09:56:10;;;;;;;18.10;6.90;;;;;;;29.10;40.27;98360.94;4782201;29;20148;-60
2023/04/28 09:58:42;;;;;;;14.88;5.30;;;;;;;29.09;39.62;98350.31;4771729;29;20060;-58
2023/04/28 10:01:12;;;;;;;14.60;5.40;;;;;;;29.28;38.00;98337.97;4775607;29;20539;-60
2023/04/28 10:03:43;;;;;;;26.95;5.45;;;;;;;29.34;38.64;98333.97;4774514;29;20051;-66
2023/04/28 10:06:13;;;;;;;13.52;5.35;;;;;;;29.52;36.45;98339.41;4771732;29;20112;-71
2023/04/28 10:08:44;;;;;;;16.58;4.90;;;;;;;29.62;35.04;98331.66;4771837;29;20056;-68
2023/04/28 10:11:16;;;;;;;10.88;5.25;;;;;;;29.96;33.39;98329.97;4784311;29;20062;-64
2023/04/28 10:13:46;;;;;;;13.17;5.33;;;;;;;29.73;38.39;98335.66;4774929;29;20136;-70
2023/04/28 10:16:16;;;;;;;15.10;5.63;;;;;;;29.53;38.43;98327.34;4792068;29;20301;-62
2023/04/28 10:18:46;;;;;;;17.10;6.00;;;;;;;29.39;38.89;98320.16;4771016;29;20063;-65
2023/04/28 10:21:18;;;;;;;22.80;5.65;;;;;;;29.05;40.76;98322.09;4773384;29;20062;-62
2023/04/28 10:23:47;;;;;;;29.70;5.72;;;;;;;29.23;39.12;98310.84;4771974;29;20130;-64
2023/04/28 10:26:18;;;;;;;34.85;6.00;;;;;;;29.11;41.00;98307.19;4772181;29;20575;-61
2023/04/28 10:28:50;;;;;;;21.40;5.05;;;;;;;29.15;41.08;98303.50;4768943;30;20472;-64
2023/04/28 10:31:21;;;;;;;30.15;5.95;;;;;;;28.94;40.52;98300.59;4774021;29;20055;-62
2023/04/28 10:33:51;;;;;;;24.67;5.50;;;;;;;28.90;41.97;98315.22;4772612;29;20051;-62
2023/04/28 10:36:53;;;;;;;30.33;7.15;;;;;;;28.50;42.61;98298.19;4763275;30;20116;-62
2023/04/28 10:39:22;;;;;;;31.73;5.40;;;;;;;28.44;43.11;98299.44;4774550;29;20066;-62
2023/04/28 10:41:52;;;;;;;18.20;5.00;;;;;;;28.57;42.01;98298.50;4777619;29;20055;-61
2023/04/28 10:44:30;;;;;;;19.70;4.60;;;;;;;28.42;42.94;98294.31;4772544;29;20078;-59
2023/04/28 10:47:03;;;;;;;13.13;4.38;;;;;;;28.25;43.71;98288.84;4769759;29;20120;-60
2023/04/28 10:49:57;;;;;;;16.02;4.65;;;;;;;28.15;42.53;98291.09;4772887;29;20055;-62
2023/04/28 10:52:39;;;;;;;16.70;4.57;;;;;;;28.07;44.27;98289.88;4786934;29;20063;-61
2023/04/28 10:55:29;;;;;;;20.60;4.88;;;;;;;28.06;44.45;98282.81;4769754;29;20056;-61
2023/04/28 10:58:27;;;;;;;17.75;4.60;;;;;;;28.07;44.21;98287.16;4781111;29;20445;-64
2023/04/28 11:01:29;;;;;;;24.42;4.53;;;;;;;28.05;43.78;98282.06;4765815;30;20143;-66
2023/04/28 11:04:23;;;;;;;16.65;4.43;;;;;;;27.97;44.94;98277.38;4770052;29;20122;-63
2023/04/28 11:07:13;;;;;;;24.90;4.40;;;;;;;27.97;44.64;98271.91;4770384;29;20051;-62
2023/04/28 11:09:42;;;;;;;16.95;5.15;;;;;;;27.78;45.72;98271.41;4766152;30;20737;-64
2023/04/28 11:12:12;;;;;;;11.02;4.63;;;;;;;27.76;45.70;98270.09;4770905;29;20055;-63
2023/04/28 11:14:41;;;;;;;16.38;5.60;;;;;;;27.71;45.24;98271.03;4773336;29;20475;-68
2023/04/28 11:17:16;;;;;;;9.77;4.82;;;;;;;27.75;45.17;98263.06;4766740;29;20154;-66
2023/04/28 11:19:50;;;;;;;19.23;4.57;;;;;;;27.75;45.10;98266.56;4777508;29;20055;-70
2023/04/28 11:22:22;;;;;;;20.33;5.03;;;;;;;27.72;44.85;98269.91;4762582;30;20066;-69
2023/04/28 11:25:00;;;;;;;8.88;4.18;;;;;;;27.67;44.94;98267.34;4763333;30;20488;-71
2023/04/28 11:27:31;;;;;;;11.32;4.60;;;;;;;27.70;44.70;98266.72;4783283;29;20380;-67
2023/04/28 11:30:01;;;;;;;17.08;4.72;;;;;;;27.74;42.01;98264.19;4771661;29;20135;-69
2023/04/28 11:32:34;;;;;;;9.88;4.47;;;;;;;27.77;44.44;98263.53;4770158;29;20107;-61
2023/04/28 11:35:08;;;;;;;25.25;6.30;;;;;;;27.63;44.57;98264.44;4768821;29;20476;-63
2023/04/28 11:37:37;;;;;;;20.30;4.82;;;;;;;27.70;44.23;98255.84;4771002;29;20120;-64
2023/04/28 11:40:11;;;;;;;24.77;4.45;;;;;;;27.65;44.22;98251.34;4771129;29;20135;-62
2023/04/28 11:42:48;;;;;;;21.42;4.90;;;;;;;27.56;44.20;98242.34;4769221;29;20210;-64
2023/04/28 11:45:17;;;;;;;11.27;3.50;;;;;;;27.57;43.04;98251.31;4780350;29;20052;-66
2023/04/28 11:47:47;;;;;;;7.75;3.92;;;;;;;27.52;43.92;98244.09;4769141;30;20055;-61
2023/04/28 11:50:16;;;;;;;11.75;4.35;;;;;;;27.47;43.42;98243.38;4769256;29;20066;-62
2023/04/28 11:52:50;;;;;;;8.10;3.63;;;;;;;27.62;43.30;98240.25;4767447;30;20417;-62
2023/04/28 11:55:21;;;;;;;17.33;4.03;;;;;;;27.66;43.01;98247.47;4770002;29;20059;-63
2023/04/28 11:58:17;;;;;;;17.70;3.80;;;;;;;27.66;40.26;98244.75;4782000;29;20434;-63
2023/04/28 12:01:09;;;;;;;16.40;3.55;;;;;;;27.57;42.42;98260.25;4784018;29;20818;-69
2023/04/28 12:03:43;;;;;;;15.35;3.38;;;;;;;27.41;43.72;98253.59;4770704;29;20138;-67
2023/04/28 12:06:18;;;;;;;13.60;3.38;;;;;;;27.33;44.22;98259.81;4780607;29;20066;-66
2023/04/28 12:08:48;;;;;;;17.15;3.60;;;;;;;27.30;43.46;98249.56;4772523;29;20503;-67
2023/04/28 12:11:20;;;;;;;9.25;3.22;;;;;;;27.26;43.66;98251.28;4776031;29;20059;-64
2023/04/28 12:14:04;;;;;;;17.75;4.18;;;;;;;27.33;43.24;98259.00;4787055;29;20124;-62
2023/04/28 12:16:44;;;;;;;15.68;3.55;;;;;;;27.30;43.27;98256.91;4766048;29;20079;-66
2023/04/28 12:19:14;;;;;;;19.13;3.47;;;;;;;27.37;42.59;98254.53;4761778;30;20067;-65
2023/04/28 12:21:44;;;;;;;15.73;4.15;;;;;;;27.50;42.52;98259.91;4761998;30;20059;-66
2023/04/28 12:24:19;;;;;;;13.65;4.00;;;;;;;27.45;43.00;98259.22;4761383;30;20062;-66
2023/04/28 12:26:48;;;;;;;12.05;3.60;;;;;;;27.34;42.79;98261.41;4764677;30;20143;-67
2023/04/28 12:29:38;;;;;;;16.88;4.10;;;;;;;27.60;41.26;98262.38;4776079;29;20059;-67
2023/04/28 12:32:10;;;;;;;9.50;3.08;;;;;;;27.62;40.85;98268.28;4775190;29;20572;-65
2023/04/28 12:34:42;;;;;;;10.60;3.72;;;;;;;27.85;40.58;98262.75;4762243;30;20059;-65
2023/04/28 12:37:12;;;;;;;10.13;2.70;;;;;;;27.73;40.50;98263.38;4762975;30;20131;-63
2023/04/28 12:39:42;;;;;;;9.25;2.53;;;;;;;27.79;39.55;98267.56;4774262;29;20051;-63
2023/04/28 12:42:11;;;;;;;14.27;2.75;;;;;;;27.89;37.43;98267.25;4774410;29;20055;-62
2023/04/28 12:44:41;;;;;;;9.75;2.60;;;;;;;27.84;38.93;98266.63;4764311;30;20083;-62
2023/04/28 12:47:10;;;;;;;31.90;3.97;;;;;;;27.76;38.31;98272.81;4763835;29;20137;-62
2023/04/28 12:49:40;;;;;;;13.88;3.25;;;;;;;27.78;38.98;98265.16;4760799;30;20926;-62
2023/04/28 12:52:10;;;;;;;18.23;3.33;;;;;;;27.69;38.86;98265.13;4775599;29;20116;-60